Terminal Aerodrome Forecast
Issued by NWS

Home | Current Version | Previous Version | Text Only | Print | Product List | Glossary On
Versions: 1 2 3 4 5 6 7 8 9 10 11 12 13 14 15 16 17 18 19 20 21
000
FTUS46 KSEW 311100
TAFHQM
TAF
KHQM 311120Z 3112/0112 20004KT P6SM SKC
      TEMPO 3112/3116 3SM BR SCT003
     FM312100 25010KT P6SM SCT250
     FM010600 24008KT 5SM BR BKN005
     FM011000 24005KT 3SM BR OVC003=

USA.gov is the U.S. government's official web portal to all federal, state and local government web resources and services.